createdAt,value
2024-02-05T00:00:13.730Z,73.15
2024-02-05T00:03:01.304Z,73.17
2024-02-05T00:05:30.327Z,73.06
2024-02-05T00:07:59.205Z,73.20
2024-02-05T00:10:26.693Z,73.05
2024-02-05T00:12:53.859Z,73.23
2024-02-05T00:15:20.998Z,73.05
2024-02-05T00:17:52.357Z,73.22
2024-02-05T00:20:19.433Z,73.21
2024-02-05T00:22:46.560Z,73.10
2024-02-05T00:25:13.659Z,73.07
2024-02-05T00:27:40.985Z,73.19
2024-02-05T00:30:08.724Z,73.22
2024-02-05T00:32:36.917Z,73.38
2024-02-05T00:35:04.381Z,73.22
2024-02-05T00:37:31.993Z,73.30
2024-02-05T00:39:59.103Z,73.29
2024-02-05T00:42:26.373Z,73.19
2024-02-05T00:44:53.605Z,73.25
2024-02-05T00:47:20.670Z,73.28
2024-02-05T00:49:47.779Z,73.19
2024-02-05T00:52:15.802Z,73.45
2024-02-05T00:54:42.926Z,73.28
2024-02-05T00:57:10.071Z,73.18
2024-02-05T00:59:37.330Z,73.27
2024-02-05T01:02:07.916Z,73.26
2024-02-05T01:04:35.636Z,73.24
2024-02-05T01:07:02.990Z,73.30
2024-02-05T01:09:30.432Z,73.30
2024-02-05T01:11:57.763Z,73.42
2024-02-05T01:14:24.837Z,73.31
2024-02-05T01:16:52.010Z,73.25
2024-02-05T01:19:19.323Z,73.40
2024-02-05T01:21:46.552Z,73.30
2024-02-05T01:24:13.646Z,73.39
2024-02-05T01:26:40.719Z,73.24
2024-02-05T01:29:08.326Z,73.28
2024-02-05T01:31:36.126Z,73.38
2024-02-05T01:34:03.966Z,73.32
2024-02-05T01:36:31.287Z,73.36
2024-02-05T01:38:58.304Z,73.35
2024-02-05T01:41:25.328Z,73.36
2024-02-05T01:43:52.368Z,73.28
2024-02-05T01:46:23.448Z,73.33
2024-02-05T01:48:55.974Z,73.33
2024-02-05T01:51:24.647Z,73.45
2024-02-05T01:53:53.563Z,73.36
2024-02-05T01:56:31.886Z,73.53
2024-02-05T01:59:02.018Z,73.32
2024-02-05T02:01:30.669Z,73.26
2024-02-05T02:03:59.380Z,73.33
2024-02-05T02:06:26.657Z,73.30
2024-02-05T02:08:54.025Z,73.40
2024-02-05T02:11:21.781Z,73.36
2024-02-05T02:13:48.983Z,73.27
2024-02-05T02:16:20.740Z,73.23
2024-02-05T02:18:49.836Z,73.21
2024-02-05T02:21:20.837Z,73.29
2024-02-05T02:23:48.268Z,73.19
2024-02-05T02:26:15.420Z,73.38
2024-02-05T02:28:42.639Z,73.34
2024-02-05T02:31:10.008Z,73.35
2024-02-05T02:34:14.804Z,73.26
2024-02-05T02:36:53.958Z,73.23
2024-02-05T02:39:25.323Z,73.17
2024-02-05T02:41:56.075Z,73.42
2024-02-05T02:44:26.312Z,73.34
2024-02-05T02:46:55.469Z,73.44
2024-02-05T02:49:23.661Z,73.37
2024-02-05T02:51:50.741Z,73.33
2024-02-05T02:54:17.940Z,73.46
2024-02-05T02:56:45.447Z,73.39
2024-02-05T02:59:13.230Z,73.53
2024-02-05T03:01:40.381Z,73.34
2024-02-05T03:04:07.674Z,73.37
2024-02-05T03:06:34.872Z,73.36
2024-02-05T03:09:02.011Z,73.55
2024-02-05T03:11:29.100Z,73.42
2024-02-05T03:13:56.302Z,73.51
2024-02-05T03:16:23.496Z,73.53
2024-02-05T03:18:50.634Z,73.39
2024-02-05T03:21:17.804Z,73.59
2024-02-05T03:23:45.451Z,73.49
2024-02-05T03:26:12.563Z,73.50
2024-02-05T03:28:39.538Z,73.43
2024-02-05T03:31:06.718Z,73.47
2024-02-05T03:33:34.076Z,73.49
2024-02-05T03:36:01.236Z,73.61
2024-02-05T03:38:28.333Z,73.52
2024-02-05T03:40:55.399Z,73.43
2024-02-05T03:43:22.525Z,73.59
2024-02-05T03:45:49.699Z,73.49
2024-02-05T03:48:16.798Z,73.50
2024-02-05T03:50:44.157Z,73.58
2024-02-05T03:53:11.172Z,73.65
2024-02-05T03:55:38.373Z,73.48
2024-02-05T03:58:05.672Z,73.66
2024-02-05T04:00:33.047Z,73.53
2024-02-05T04:03:00.275Z,73.58
2024-02-05T04:05:30.209Z,73.65
2024-02-05T04:07:58.824Z,73.67
2024-02-05T04:10:27.527Z,73.54
2024-02-05T04:12:54.905Z,73.67
2024-02-05T04:15:22.087Z,73.79
2024-02-05T04:17:49.249Z,73.77
2024-02-05T04:20:16.560Z,73.72
2024-02-05T04:22:43.661Z,73.63
2024-02-05T04:25:11.566Z,73.74
2024-02-05T04:27:38.910Z,73.69
2024-02-05T04:30:06.639Z,73.74
2024-02-05T04:32:35.018Z,73.65
2024-02-05T04:35:02.643Z,73.82
2024-02-05T04:37:29.947Z,73.72
2024-02-05T04:39:56.961Z,73.83
2024-02-05T04:42:24.183Z,74.00
2024-02-05T04:44:51.396Z,73.86
2024-02-05T04:47:18.369Z,73.93
2024-02-05T04:49:46.895Z,73.86
2024-02-05T04:52:14.636Z,73.89
2024-02-05T04:54:41.891Z,73.67
2024-02-05T04:57:09.004Z,73.82
2024-02-05T04:59:36.410Z,73.77
2024-02-05T05:02:04.053Z,73.75
2024-02-05T05:04:31.325Z,73.72
2024-02-05T05:06:58.920Z,73.74
2024-02-05T05:09:25.962Z,73.70
2024-02-05T05:11:52.967Z,73.94
2024-02-05T05:14:19.997Z,73.73
2024-02-05T05:16:47.000Z,73.84
2024-02-05T05:19:14.241Z,73.75
2024-02-05T05:21:41.525Z,73.94
2024-02-05T05:24:08.788Z,73.91
2024-02-05T05:26:37.854Z,74.10
2024-02-05T05:29:05.498Z,74.03
2024-02-05T05:31:32.613Z,74.16
2024-02-05T05:33:59.784Z,74.09
2024-02-05T05:36:26.831Z,73.88
2024-02-05T05:38:53.845Z,73.94
2024-02-05T05:41:20.881Z,73.98
2024-02-05T05:43:47.927Z,74.23
2024-02-05T05:46:14.948Z,74.02
2024-02-05T05:48:42.814Z,74.19
2024-02-05T05:51:09.924Z,74.02
2024-02-05T05:53:37.023Z,73.98
2024-02-05T05:56:04.431Z,73.88
2024-02-05T05:58:31.694Z,74.10
2024-02-05T06:00:58.903Z,74.05
2024-02-05T06:03:26.084Z,74.04
2024-02-05T06:05:53.404Z,74.03
2024-02-05T06:08:21.702Z,73.98
2024-02-05T06:10:48.833Z,74.19
2024-02-05T06:13:16.000Z,74.15
2024-02-05T06:15:43.318Z,74.00
2024-02-05T06:18:10.503Z,74.03
2024-02-05T06:20:37.639Z,73.87
2024-02-05T06:23:06.992Z,74.08
2024-02-05T06:25:34.057Z,74.07
2024-02-05T06:28:01.356Z,74.13
2024-02-05T06:30:28.620Z,74.02
2024-02-05T06:32:55.704Z,73.83
2024-02-05T06:35:23.763Z,73.98
2024-02-05T06:37:50.898Z,74.03
2024-02-05T06:40:18.993Z,73.98
2024-02-05T06:42:47.645Z,74.10
2024-02-05T06:45:15.273Z,74.03
2024-02-05T06:47:42.387Z,73.98
2024-02-05T06:50:11.594Z,74.24
2024-02-05T06:52:38.717Z,74.12
2024-02-05T06:55:06.004Z,74.17
2024-02-05T06:57:34.761Z,74.19
2024-02-05T07:00:04.675Z,74.10
2024-02-05T07:02:31.846Z,74.09
2024-02-05T07:04:58.971Z,74.13
2024-02-05T07:07:28.976Z,73.96
2024-02-05T07:09:56.879Z,74.03
2024-02-05T07:12:24.927Z,74.11
2024-02-05T07:14:52.032Z,74.19
2024-02-05T07:17:19.186Z,74.08
2024-02-05T07:19:46.372Z,74.02
2024-02-05T07:22:14.016Z,73.92
2024-02-05T07:24:45.282Z,73.87
2024-02-05T07:27:12.370Z,74.02
2024-02-05T07:29:41.230Z,74.13
2024-02-05T07:32:08.283Z,74.04
2024-02-05T07:34:35.443Z,73.98
2024-02-05T07:37:03.034Z,73.97
2024-02-05T07:39:30.140Z,74.22
2024-02-05T07:41:57.219Z,73.97
2024-02-05T07:44:24.360Z,74.07
2024-02-05T07:46:51.460Z,73.99
2024-02-05T07:49:18.744Z,74.15
2024-02-05T07:51:49.301Z,74.04
2024-02-05T07:54:17.171Z,74.17
2024-02-05T07:56:44.960Z,74.03
2024-02-05T07:59:13.015Z,74.07
2024-02-05T08:01:40.419Z,74.10
2024-02-05T08:04:07.677Z,74.13
2024-02-05T08:06:35.008Z,74.23
2024-02-05T08:09:02.920Z,74.14
2024-02-05T08:11:30.009Z,74.25
2024-02-05T08:13:57.058Z,74.15
2024-02-05T08:16:24.221Z,74.09
2024-02-05T08:18:52.153Z,74.18
2024-02-05T08:21:19.389Z,74.13
2024-02-05T08:23:48.798Z,74.08
2024-02-05T08:26:15.902Z,73.95
2024-02-05T08:28:43.367Z,73.94
2024-02-05T08:31:10.530Z,74.15
2024-02-05T08:33:37.750Z,74.10
2024-02-05T08:36:05.295Z,74.21
2024-02-05T08:38:32.403Z,74.22
2024-02-05T08:40:59.508Z,74.19
2024-02-05T08:43:26.695Z,74.19
2024-02-05T08:45:53.983Z,74.25
2024-02-05T08:48:21.241Z,74.21
2024-02-05T08:50:48.385Z,74.10
2024-02-05T08:53:16.383Z,74.09
2024-02-05T08:55:43.707Z,74.13
2024-02-05T08:58:10.864Z,73.98
2024-02-05T09:00:38.078Z,74.05
2024-02-05T09:03:08.913Z,74.08
2024-02-05T09:05:43.826Z,74.10
2024-02-05T09:08:14.175Z,73.98
2024-02-05T09:10:41.330Z,73.94
2024-02-05T09:13:08.717Z,73.87
2024-02-05T09:15:36.364Z,73.95
2024-02-05T09:18:03.569Z,73.97
2024-02-05T09:20:30.779Z,73.80
2024-02-05T09:22:58.542Z,73.79
2024-02-05T09:25:25.760Z,73.71
2024-02-05T09:27:54.073Z,73.74
2024-02-05T09:30:22.455Z,73.78
2024-02-05T09:32:50.383Z,73.80
2024-02-05T09:35:18.215Z,73.91
2024-02-05T09:37:45.362Z,73.82
2024-02-05T09:40:12.904Z,73.80
2024-02-05T09:42:40.333Z,73.73
2024-02-05T09:45:13.355Z,73.76
2024-02-05T09:47:43.343Z,73.81
2024-02-05T09:50:13.940Z,73.65
2024-02-05T09:52:41.641Z,73.81
2024-02-05T09:55:14.252Z,73.73
2024-02-05T09:57:43.287Z,73.50
2024-02-05T10:00:12.393Z,73.57
2024-02-05T10:02:40.154Z,73.60
2024-02-05T10:05:16.448Z,73.66
2024-02-05T10:07:48.702Z,73.61
2024-02-05T10:10:16.334Z,73.57
2024-02-05T10:12:46.419Z,73.52
2024-02-05T10:15:14.665Z,73.50
2024-02-05T10:17:43.331Z,73.54
2024-02-05T10:20:14.093Z,73.54
2024-02-05T10:22:48.315Z,73.50
2024-02-05T10:25:17.575Z,73.43
2024-02-05T10:27:44.980Z,73.43
2024-02-05T10:30:12.369Z,73.42
2024-02-05T10:32:40.631Z,73.26
2024-02-05T10:35:09.843Z,73.21
2024-02-05T10:37:37.254Z,73.29
2024-02-05T10:40:06.579Z,73.32
2024-02-05T10:42:34.799Z,73.42
2024-02-05T10:45:05.919Z,73.40
2024-02-05T10:47:33.172Z,73.38
2024-02-05T10:50:00.788Z,73.33
2024-02-05T10:52:28.867Z,73.21
2024-02-05T10:54:59.913Z,73.23
2024-02-05T10:57:31.538Z,73.25
2024-02-05T10:59:59.568Z,73.24
2024-02-05T11:02:32.013Z,73.17
2024-02-05T11:05:03.805Z,73.14
2024-02-05T11:07:43.716Z,73.08
2024-02-05T11:10:10.961Z,73.20
2024-02-05T11:12:40.097Z,73.29
2024-02-05T11:15:11.112Z,73.15
2024-02-05T11:17:39.815Z,72.99
2024-02-05T11:20:11.896Z,73.13
2024-02-05T11:22:42.593Z,73.00
2024-02-05T11:25:10.482Z,72.96
2024-02-05T11:27:38.056Z,72.88
2024-02-05T11:30:10.632Z,72.96
2024-02-05T11:32:37.772Z,73.04
2024-02-05T11:35:13.912Z,72.88
2024-02-05T11:37:45.397Z,72.97
2024-02-05T11:40:22.359Z,73.05
2024-02-05T11:43:06.950Z,73.06
2024-02-05T11:45:35.069Z,72.83
2024-02-05T11:48:04.916Z,72.83
2024-02-05T11:50:36.356Z,72.91
2024-02-05T11:53:03.476Z,72.71
2024-02-05T11:55:30.713Z,72.61
2024-02-05T11:57:57.981Z,72.67
2024-02-05T12:00:26.965Z,72.47
2024-02-05T12:02:54.185Z,72.37
2024-02-05T12:05:22.550Z,72.67
2024-02-05T12:07:51.144Z,72.42
2024-02-05T12:10:18.996Z,72.64
2024-02-05T12:12:47.324Z,72.58
2024-02-05T12:15:19.780Z,72.62
2024-02-05T12:17:50.581Z,72.48
2024-02-05T12:20:20.846Z,72.66
2024-02-05T12:22:49.196Z,72.54
2024-02-05T12:25:28.160Z,72.52
2024-02-05T12:28:02.516Z,72.61
2024-02-05T12:30:29.575Z,72.65
2024-02-05T12:32:58.029Z,72.63
2024-02-05T12:35:25.565Z,72.79
2024-02-05T12:37:55.190Z,72.46
2024-02-05T12:40:22.895Z,72.55
2024-02-05T12:42:50.121Z,72.56
2024-02-05T12:45:17.842Z,72.47
2024-02-05T12:47:45.495Z,72.35
2024-02-05T12:50:13.043Z,72.47
2024-02-05T12:52:40.756Z,72.27
2024-02-05T12:55:08.625Z,72.40
2024-02-05T12:57:35.861Z,72.37
2024-02-05T13:00:05.853Z,72.19
2024-02-05T13:02:33.441Z,72.00
2024-02-05T13:05:04.797Z,71.88
2024-02-05T13:07:32.433Z,71.79
2024-02-05T13:10:01.549Z,71.92
2024-02-05T13:12:29.393Z,71.77
2024-02-05T13:14:57.062Z,71.79
2024-02-05T13:17:24.245Z,71.75
2024-02-05T13:19:51.371Z,71.91
2024-02-05T13:22:18.623Z,71.76
2024-02-05T13:24:46.235Z,71.94
2024-02-05T13:27:13.543Z,71.81
2024-02-05T13:29:40.491Z,71.81
2024-02-05T13:32:07.944Z,71.78
2024-02-05T13:34:35.887Z,71.97
2024-02-05T13:37:03.156Z,71.86
2024-02-05T13:39:32.438Z,71.76
2024-02-05T13:42:03.589Z,71.83
2024-02-05T13:44:31.383Z,71.88
2024-02-05T13:46:58.482Z,71.74
2024-02-05T13:49:26.752Z,71.90
2024-02-05T13:51:53.913Z,71.64
2024-02-05T13:54:21.052Z,71.74
2024-02-05T13:56:51.407Z,71.62
2024-02-05T13:59:19.010Z,71.70
2024-02-05T14:01:47.314Z,71.57
2024-02-05T14:04:14.702Z,71.60
2024-02-05T14:06:41.971Z,71.72
2024-02-05T14:09:09.723Z,71.73
2024-02-05T14:11:36.833Z,71.56
2024-02-05T14:14:03.962Z,71.72
2024-02-05T14:16:31.265Z,71.70
2024-02-05T14:18:58.462Z,71.39
2024-02-05T14:21:25.602Z,71.47
2024-02-05T14:23:52.621Z,71.37
2024-02-05T14:26:19.681Z,71.29
2024-02-05T14:28:46.826Z,71.46
2024-02-05T14:31:13.921Z,71.43
2024-02-05T14:33:43.086Z,71.45
2024-02-05T14:36:12.083Z,71.37
2024-02-05T14:38:39.448Z,71.38
2024-02-05T14:41:06.532Z,71.41
2024-02-05T14:43:33.567Z,71.44
2024-02-05T14:46:00.863Z,71.48
2024-02-05T14:48:28.576Z,71.18
2024-02-05T14:50:56.255Z,71.15
2024-02-05T14:53:24.647Z,71.29
2024-02-05T14:55:51.697Z,71.37
2024-02-05T14:58:19.319Z,71.29
2024-02-05T15:00:47.034Z,71.18
2024-02-05T15:03:14.177Z,71.19
2024-02-05T15:05:41.528Z,71.24
2024-02-05T15:08:08.835Z,71.28
2024-02-05T15:10:36.078Z,71.09
2024-02-05T15:13:04.049Z,71.10
2024-02-05T15:15:32.069Z,70.95
2024-02-05T15:18:00.162Z,70.87
2024-02-05T15:20:27.614Z,71.11
2024-02-05T15:22:54.780Z,70.96
2024-02-05T15:25:21.979Z,71.01
2024-02-05T15:27:49.318Z,70.95
2024-02-05T15:30:16.788Z,70.99
2024-02-05T15:32:44.473Z,70.94
2024-02-05T15:35:11.983Z,70.95
2024-02-05T15:37:39.266Z,70.94
2024-02-05T15:40:07.019Z,71.02
2024-02-05T15:42:38.254Z,70.84
2024-02-05T15:45:07.882Z,70.79
2024-02-05T15:47:35.747Z,70.82
2024-02-05T15:50:02.932Z,70.75
2024-02-05T15:52:30.322Z,70.88
2024-02-05T15:54:57.867Z,70.89
2024-02-05T15:57:25.141Z,70.99
2024-02-05T15:59:52.163Z,70.98
2024-02-05T16:02:19.219Z,71.04
2024-02-05T16:04:46.469Z,71.02
2024-02-05T16:07:13.694Z,71.22
2024-02-05T16:09:40.794Z,71.04
2024-02-05T16:12:08.258Z,71.18
2024-02-05T16:14:35.271Z,71.11
2024-02-05T16:17:02.835Z,71.19
2024-02-05T16:19:31.138Z,71.19
2024-02-05T16:21:58.474Z,71.10
2024-02-05T16:24:26.436Z,71.17
2024-02-05T16:26:53.966Z,71.27
2024-02-05T16:29:21.137Z,71.30
2024-02-05T16:31:48.388Z,71.23
2024-02-05T16:34:15.953Z,71.18
2024-02-05T16:36:43.196Z,71.34
2024-02-05T16:39:11.211Z,71.25
2024-02-05T16:41:38.325Z,71.30
2024-02-05T16:44:05.761Z,71.40
2024-02-05T16:46:33.097Z,71.38
2024-02-05T16:49:00.435Z,71.45
2024-02-05T16:51:27.694Z,71.33
2024-02-05T16:53:54.707Z,71.37
2024-02-05T16:56:21.770Z,71.35
2024-02-05T16:58:48.852Z,71.43
2024-02-05T17:01:16.102Z,71.53
2024-02-05T17:03:43.463Z,71.47
2024-02-05T17:06:11.487Z,71.51
2024-02-05T17:08:39.705Z,71.39
2024-02-05T17:11:06.859Z,71.36
2024-02-05T17:13:34.091Z,71.42
2024-02-05T17:16:04.686Z,71.57
2024-02-05T17:18:32.560Z,71.55
2024-02-05T17:20:59.724Z,71.59
2024-02-05T17:23:26.726Z,71.46
2024-02-05T17:25:53.765Z,71.46
2024-02-05T17:28:20.901Z,71.44
2024-02-05T17:30:48.088Z,71.38
2024-02-05T17:33:15.216Z,71.43
2024-02-05T17:35:42.253Z,71.44
2024-02-05T17:38:11.797Z,71.54
2024-02-05T17:40:39.209Z,71.25
2024-02-05T17:43:06.342Z,71.32
2024-02-05T17:45:33.678Z,71.31
2024-02-05T17:48:01.676Z,71.30
2024-02-05T17:50:28.729Z,71.26
2024-02-05T17:52:57.296Z,71.36
2024-02-05T17:55:24.359Z,71.36
2024-02-05T17:57:51.392Z,71.37
2024-02-05T18:00:18.656Z,71.34
2024-02-05T18:02:45.830Z,71.39
2024-02-05T18:05:13.088Z,71.41
2024-02-05T18:07:40.310Z,71.47
2024-02-05T18:10:08.097Z,71.44
2024-02-05T18:12:35.191Z,71.41
2024-02-05T18:15:02.225Z,71.46
2024-02-05T18:17:29.333Z,71.57
2024-02-05T18:19:56.469Z,71.50
2024-02-05T18:22:23.587Z,71.55
2024-02-05T18:24:51.714Z,71.47
2024-02-05T18:27:19.060Z,71.38
2024-02-05T18:29:46.158Z,71.41
2024-02-05T18:32:13.384Z,71.53
2024-02-05T18:34:44.896Z,71.40
2024-02-05T18:37:17.150Z,71.33
2024-02-05T18:39:44.643Z,71.36
2024-02-05T18:42:11.670Z,71.46
2024-02-05T18:44:38.679Z,71.34
2024-02-05T18:47:06.268Z,71.40
2024-02-05T18:49:33.393Z,71.38
2024-02-05T18:52:04.363Z,71.48
2024-02-05T18:54:35.626Z,71.36
2024-02-05T18:57:02.901Z,71.41
2024-02-05T18:59:32.010Z,71.55
2024-02-05T19:01:59.550Z,71.45
2024-02-05T19:04:26.844Z,71.51
2024-02-05T19:06:54.729Z,71.54
2024-02-05T19:09:23.692Z,71.62
2024-02-05T19:11:51.505Z,71.51
2024-02-05T19:14:18.536Z,71.58
2024-02-05T19:16:47.481Z,71.53
2024-02-05T19:19:16.693Z,71.63
2024-02-05T19:21:43.771Z,71.50
2024-02-05T19:24:13.657Z,71.41
2024-02-05T19:26:40.923Z,71.47
2024-02-05T19:29:08.164Z,71.66
2024-02-05T19:31:35.187Z,71.58
2024-02-05T19:34:02.382Z,71.65
2024-02-05T19:36:29.591Z,71.55
2024-02-05T19:38:56.585Z,71.58
2024-02-05T19:41:23.667Z,71.66
2024-02-05T19:43:51.485Z,71.61
2024-02-05T19:46:19.554Z,71.67
2024-02-05T19:48:47.487Z,71.64
2024-02-05T19:51:14.542Z,71.75
2024-02-05T19:53:41.571Z,71.69
2024-02-05T19:56:08.644Z,71.67
2024-02-05T19:58:35.808Z,71.63
2024-02-05T20:01:03.000Z,71.58
2024-02-05T20:03:30.058Z,71.44
2024-02-05T20:05:57.327Z,71.43
2024-02-05T20:08:24.414Z,71.56
2024-02-05T20:10:51.548Z,71.64
2024-02-05T20:13:18.718Z,71.77
2024-02-05T20:15:45.808Z,71.57
2024-02-05T20:18:13.103Z,71.56
2024-02-05T20:20:40.320Z,71.76
2024-02-05T20:23:07.449Z,71.71
2024-02-05T20:25:34.591Z,71.70
2024-02-05T20:28:01.874Z,71.60
2024-02-05T20:30:28.959Z,71.64
2024-02-05T20:32:56.584Z,71.59
2024-02-05T20:35:23.810Z,71.65
2024-02-05T20:37:51.063Z,71.60
2024-02-05T20:40:18.281Z,71.55
2024-02-05T20:42:45.462Z,71.60
2024-02-05T20:45:12.754Z,71.53
2024-02-05T20:47:39.815Z,71.49
2024-02-05T20:50:07.620Z,71.47
2024-02-05T20:52:34.735Z,71.54
2024-02-05T20:55:04.334Z,71.40
2024-02-05T20:57:31.795Z,71.42
2024-02-05T20:59:58.884Z,71.51
2024-02-05T21:02:25.874Z,71.40
2024-02-05T21:04:52.999Z,71.35
2024-02-05T21:07:20.248Z,71.39
2024-02-05T21:09:47.364Z,71.35
2024-02-05T21:12:14.442Z,71.29
2024-02-05T21:14:41.477Z,71.38
2024-02-05T21:17:09.464Z,71.45
2024-02-05T21:19:36.722Z,71.48
2024-02-05T21:22:05.773Z,71.58
2024-02-05T21:24:32.954Z,71.53
2024-02-05T21:27:01.216Z,71.46
2024-02-05T21:29:28.286Z,71.53
2024-02-05T21:31:55.618Z,71.69
2024-02-05T21:34:24.175Z,71.68
2024-02-05T21:36:52.686Z,71.70
2024-02-05T21:39:19.879Z,71.70
2024-02-05T21:41:46.888Z,71.60
2024-02-05T21:44:13.956Z,71.56
2024-02-05T21:46:42.102Z,71.47
2024-02-05T21:49:09.398Z,71.54
2024-02-05T21:51:36.498Z,71.54
2024-02-05T21:54:03.589Z,71.43
2024-02-05T21:56:30.819Z,71.61
2024-02-05T21:58:57.956Z,71.53
2024-02-05T22:01:25.139Z,71.45
2024-02-05T22:03:52.315Z,71.55
2024-02-05T22:06:37.543Z,71.54
2024-02-05T22:09:04.578Z,71.64
2024-02-05T22:11:31.622Z,71.57
2024-02-05T22:13:58.716Z,71.63
2024-02-05T22:16:26.307Z,71.60
2024-02-05T22:18:53.493Z,71.55
2024-02-05T22:21:20.562Z,71.53
2024-02-05T22:23:47.632Z,71.57
2024-02-05T22:26:14.623Z,71.62
2024-02-05T22:28:41.720Z,71.67
2024-02-05T22:31:09.064Z,71.59
2024-02-05T22:33:37.368Z,71.63
2024-02-05T22:36:05.209Z,71.57
2024-02-05T22:38:32.357Z,71.65
2024-02-05T22:40:59.409Z,71.62
2024-02-05T22:43:26.885Z,71.65
2024-02-05T22:45:53.958Z,71.58
2024-02-05T22:48:21.125Z,71.66
2024-02-05T22:50:48.295Z,71.62
2024-02-05T22:53:15.332Z,71.64
2024-02-05T22:55:42.577Z,71.51
2024-02-05T22:58:10.356Z,71.56
2024-02-05T23:00:39.610Z,71.63
2024-02-05T23:03:07.734Z,71.62
2024-02-05T23:05:36.445Z,71.61
2024-02-05T23:08:03.853Z,71.56
2024-02-05T23:10:33.018Z,71.60
2024-02-05T23:13:00.361Z,71.71
2024-02-05T23:15:27.475Z,71.75
2024-02-05T23:17:54.639Z,71.66
2024-02-05T23:20:22.464Z,71.75
2024-02-05T23:22:49.840Z,71.78
2024-02-05T23:25:16.941Z,71.72
2024-02-05T23:27:44.070Z,71.74
2024-02-05T23:30:12.112Z,71.76
2024-02-05T23:32:39.247Z,71.81
2024-02-05T23:35:06.706Z,71.67
2024-02-05T23:37:34.318Z,71.74
2024-02-05T23:40:05.226Z,71.68
2024-02-05T23:42:33.147Z,71.87
2024-02-05T23:45:00.369Z,71.73
2024-02-05T23:47:27.497Z,71.62
2024-02-05T23:49:54.737Z,71.74
2024-02-05T23:52:21.904Z,71.80
2024-02-05T23:54:49.612Z,71.80
2024-02-05T23:57:21.931Z,71.95
2024-02-05T23:59:49.703Z,71.96
